Scroll down
FLIGHT INFORMATION
Alaska Airlines

ASA223

At Arrival Gate

KSEA
 PAFA
DATE: 2020-10-31
GATE: N16
GATE DEPARTURE: 20:14
TAKEOFF: 20:25
DATE: 2020-11-01
GATE:  -
LANDING: 00:03
GATE ARRIVAL: 00:07
FLIGHT DATA
Crew: 
Speed: 
464 kts
Altitude: 
36,037 ft
Stage Length: 
1,329.0 nm
Block Time: 
3.8 hrs
Flight Time: 
3.6 hrs
Fuel Used: 
21,388 lb
Cleared Route: KSEA SEA ORCUS CFQWB YYJ DUGGS HANRY CFSTF ANN GESTI DOOZI LVD SSR CFWBW IGSOM AYZOL ORT RDFLG PAFA
TRACK DATA
50,000 ft 1,000 kts
AIRCRAFT INFO AND CUMULATIVE STATS
Aircraft Type: 
B739ERSSW
Registration: 
SELCAL: 
JSFL
MSN/LN: 
44112 / 6367
Operator: 
Total Flights: 
3
Total Block Time: 
11.2 hrs
Total Flight Time: 
10.6 hrs
Total Fuel Used: 
61,349 lb
DATALINK LOG | Newest first | Current as of: 2022-10-04 19:07:58
LABEL SEQUENCE CONTENT Dn/Up
QD142100:07 11.8▼ Dn
QC101700:03▼ Dn
DM794219 ATIS PAFA A▼ Dn
DM790731 ATIS PAFA A▼ Dn
DM790327 ATIS PAFA A▼ Dn
2U5728PAFA 010021Z 00000KT 1SM R02L/P6000FT -SN BR FEW016 OVC021 M14/M17 A2997 RMK AO2 P0000 T11391172▲ Up
2S0024PAFA▼ Dn
DM793056 ATIS PAFA A▼ Dn
5U5120PAFA 010253Z VRB03KT 1 1/2SM -SN BR OVC015 M15/M18 A2998▲ Up
5S5422PAFA▼ Dn
QB275820:25▼ Dn
QA164720:14 33.2▼ Dn
UM2120344KSEA ATIS - SEA ATIS INFO G 2153Z. 35008KT 10SM BKN250 13/04 A3036 (THREE ZERO THREE SIX). ILS, AND CVA, RYS 34L AND 34R , APCH IN USE. DEPARTING RY 34R. SIMUL APCHS IN USE TO PARA RYS. NOTAMS... TWY B CLSD BTN TWY G AND TWY E. HAZD WX INFO FOR WESTERN WA AVAILABLE ON HIWAS. ...ADVS YOU HAVE INFO G.▲ Up
DM790334 ATIS KSEA D▼ Dn
Q05930[LINK ACK]▲ Up
Q05930[LINK TEST]▼ Dn


AIRCRAFT HISTORY
FLIGHT DATE FLIGHT NO. ORIGIN DESTINATION CLEARED ROUTE BLOCK TIME FLIGHT TIME FUEL USED PILOT
2022-01-04ASA594PAFA KSEA PAFA RDFLG ORT AYZOL IGSOM WOGUS SSR HOODS LVD DOOZI GESTI ANN CFSTF HANRY DUGGS YYJ KSEA3.3 hrs3.1 hrs18,294 lbRyan Syferd
2020-10-31ASA223KSEA PAFA KSEA SEA ORCUS CFQWB YYJ DUGGS HANRY CFSTF ANN GESTI DOOZI LVD SSR CFWBW IGSOM AYZOL ORT RDFLG PAFA3.8 hrs3.6 hrs21,388 lbRyan Syferd
2020-10-31ASA287MMSD KSEA MMSD ANEGO TAGMO GRNNB SQN TOVES ENSNB KREPE TIJ TEYON MZB LAX GMN LMT KSEA4.1 hrs3.9 hrs21,666 lbRyan Syferd